createdAt,value
2022-08-03T00:00:53.562Z,15.0
2022-08-03T00:03:24.164Z,14.9
2022-08-03T00:06:04.275Z,14.9
2022-08-03T00:08:37.747Z,14.9
2022-08-03T00:11:00.851Z,14.8
2022-08-03T00:13:31.452Z,14.8
2022-08-03T00:16:02.035Z,14.8
2022-08-03T00:18:33.446Z,15.0
2022-08-03T00:23:51.039Z,15.0
2022-08-03T00:26:12.886Z,15.0
2022-08-03T00:28:43.489Z,14.9
2022-08-03T00:31:14.106Z,14.9
2022-08-03T00:33:58.500Z,14.8
2022-08-03T00:36:18.115Z,14.8
2022-08-03T00:38:58.696Z,14.7
2022-08-03T00:41:29.294Z,14.6
2022-08-03T00:43:59.903Z,14.5
2022-08-03T00:46:30.526Z,14.4
2022-08-03T00:49:01.204Z,14.3
2022-08-03T00:51:31.980Z,14.2
2022-08-03T00:54:12.585Z,14.1
2022-08-03T00:56:59.412Z,14.0
2022-08-03T00:59:20.344Z,13.9
2022-08-03T01:04:21.073Z,13.8
2022-08-03T01:07:01.623Z,13.7
2022-08-03T01:09:32.761Z,13.6
2022-08-03T01:12:03.378Z,13.5
2022-08-03T01:14:34.294Z,13.5
2022-08-03T01:17:05.479Z,13.4
2022-08-03T01:19:36.092Z,13.5
2022-08-03T01:22:16.980Z,13.5
2022-08-03T01:24:47.742Z,13.5
2022-08-03T01:27:18.332Z,13.6
2022-08-03T01:29:48.934Z,13.6
2022-08-03T01:32:52.314Z,13.6
2022-08-03T01:34:51.044Z,13.7
2022-08-03T01:37:31.654Z,13.8
2022-08-03T01:40:02.277Z,13.8
2022-08-03T01:45:03.010Z,13.8
2022-08-03T01:47:33.608Z,13.6
2022-08-03T01:50:04.220Z,13.5
2022-08-03T01:52:47.145Z,13.4
2022-08-03T01:55:17.762Z,13.3
2022-08-03T01:58:04.497Z,13.2
2022-08-03T02:00:15.485Z,13.2
2022-08-03T02:05:26.239Z,13.2
2022-08-03T02:07:56.848Z,13.1
2022-08-03T02:10:35.080Z,13.1
2022-08-03T02:12:56.427Z,13.1
2022-08-03T02:15:27.003Z,13.0
2022-08-03T02:17:57.606Z,13.0
2022-08-03T02:20:38.228Z,12.8
2022-08-03T02:25:39.017Z,12.6
2022-08-03T02:28:12.141Z,12.4
2022-08-03T02:30:42.723Z,12.4
2022-08-03T02:33:14.500Z,12.4
2022-08-03T02:35:55.109Z,12.3
2022-08-03T02:38:25.681Z,12.3
2022-08-03T02:40:56.271Z,12.2
2022-08-03T02:43:26.888Z,12.2
2022-08-03T02:45:56.424Z,12.2
2022-08-03T02:48:27.028Z,12.3
2022-08-03T02:51:07.616Z,12.4
2022-08-03T02:53:38.213Z,12.4
2022-08-03T02:56:08.834Z,12.4
2022-08-03T02:58:39.433Z,12.3
2022-08-03T03:01:10.133Z,12.3
2022-08-03T03:06:21.102Z,12.2
2022-08-03T03:08:59.723Z,12.1
2022-08-03T03:11:30.467Z,12.0
2022-08-03T03:14:01.064Z,12.0
2022-08-03T03:16:23.465Z,12.0
2022-08-03T03:19:10.933Z,12.0
2022-08-03T03:21:41.533Z,11.8
2022-08-03T03:24:12.137Z,11.8
2022-08-03T03:26:42.721Z,11.8
2022-08-03T03:29:13.306Z,11.7
2022-08-03T03:31:39.625Z,11.6
2022-08-03T03:34:22.884Z,11.6
2022-08-03T03:36:54.637Z,11.6
2022-08-03T03:39:25.236Z,11.6
2022-08-03T03:41:55.843Z,11.8
2022-08-03T03:46:57.109Z,11.3
2022-08-03T03:49:42.759Z,11.2
2022-08-03T03:52:13.487Z,11.2
2022-08-03T03:54:44.201Z,11.2
2022-08-03T03:57:09.451Z,11.2
2022-08-03T03:59:43.793Z,11.2
2022-08-03T04:02:14.555Z,11.2
2022-08-03T04:04:55.311Z,11.2
2022-08-03T04:07:25.909Z,11.2
2022-08-03T04:09:56.525Z,11.2
2022-08-03T04:12:25.138Z,11.2
2022-08-03T04:15:00.650Z,11.2
2022-08-03T04:17:31.243Z,11.2
2022-08-03T04:20:11.826Z,11.2
2022-08-03T04:22:42.419Z,11.2
2022-08-03T04:27:43.119Z,11.3
2022-08-03T04:30:10.478Z,11.3
2022-08-03T04:32:51.070Z,11.5
2022-08-03T04:35:23.248Z,11.6
2022-08-03T04:37:52.757Z,11.7
2022-08-03T04:40:23.351Z,11.9
2022-08-03T04:42:49.896Z,12.0
2022-08-03T04:45:20.522Z,12.0
2022-08-03T04:48:02.061Z,12.2
2022-08-03T04:50:33.724Z,12.2
2022-08-03T04:53:04.318Z,12.4
2022-08-03T04:55:34.942Z,12.7
2022-08-03T04:58:05.575Z,12.7
2022-08-03T05:00:36.152Z,12.8
2022-08-03T05:03:19.620Z,13.0
2022-08-03T05:08:27.997Z,13.3
2022-08-03T05:10:49.363Z,13.5
2022-08-03T05:13:20.115Z,13.8
2022-08-03T05:15:50.723Z,14.1
2022-08-03T05:18:31.367Z,14.4
2022-08-03T05:21:01.976Z,14.8
2022-08-03T05:23:32.594Z,15.2
2022-08-03T05:26:03.206Z,15.5
2022-08-03T05:28:33.813Z,15.8
2022-08-03T05:31:11.444Z,16.3
2022-08-03T05:33:52.069Z,16.8
2022-08-03T05:36:22.661Z,16.7
2022-08-03T05:38:53.244Z,17.0
2022-08-03T05:41:36.769Z,17.8
2022-08-03T05:43:48.028Z,18.9
2022-08-03T05:49:08.859Z,19.1
2022-08-03T05:51:39.631Z,19.6
2022-08-03T05:54:09.320Z,19.1
2022-08-03T05:56:36.266Z,19.7
2022-08-03T05:59:22.656Z,20.5
2022-08-03T06:01:49.692Z,21.2
2022-08-03T06:04:20.498Z,21.9
2022-08-03T06:06:51.083Z,22.4
2022-08-03T06:09:21.714Z,22.7
2022-08-03T06:11:48.272Z,23.0
2022-08-03T06:14:24.201Z,23.3
2022-08-03T06:17:04.790Z,23.6
2022-08-03T06:19:37.058Z,23.5
2022-08-03T06:22:07.670Z,23.5
2022-08-03T06:24:38.667Z,23.9
2022-08-03T06:29:34.700Z,24.0
2022-08-03T06:32:16.711Z,23.5
2022-08-03T06:34:48.021Z,23.7
2022-08-03T06:37:18.621Z,23.8
2022-08-03T06:39:49.238Z,23.3
2022-08-03T06:42:24.202Z,23.4
2022-08-03T06:44:56.544Z,23.4
2022-08-03T06:47:28.411Z,23.6
2022-08-03T06:50:13.071Z,24.2
2022-08-03T06:52:38.589Z,24.1
2022-08-03T06:54:59.340Z,24.4
2022-08-03T06:57:29.911Z,24.3
2022-08-03T07:00:20.524Z,24.6
2022-08-03T07:02:54.855Z,24.8
2022-08-03T07:05:18.202Z,25.0
2022-08-03T07:10:18.948Z,25.6
2022-08-03T07:12:52.889Z,25.0
2022-08-03T07:15:38.476Z,24.8
2022-08-03T07:18:04.747Z,25.3
2022-08-03T07:20:32.573Z,25.5
2022-08-03T07:23:03.724Z,25.4
2022-08-03T07:25:29.723Z,25.8
2022-08-03T07:28:00.328Z,26.1
2022-08-03T07:30:40.918Z,26.2
2022-08-03T07:33:11.514Z,26.2
2022-08-03T07:35:42.119Z,26.1
2022-08-03T07:38:12.732Z,25.5
2022-08-03T07:40:46.244Z,25.4
2022-08-03T07:43:27.034Z,25.5
2022-08-03T07:45:59.323Z,25.7
2022-08-03T07:51:00.075Z,26.0
2022-08-03T07:53:30.683Z,26.4
2022-08-03T07:55:57.926Z,26.6
2022-08-03T07:58:41.976Z,26.9
2022-08-03T08:01:14.970Z,27.0
2022-08-03T08:03:52.498Z,26.8
2022-08-03T08:06:13.552Z,26.7
2022-08-03T08:08:44.150Z,26.4
2022-08-03T08:11:14.783Z,26.2
2022-08-03T08:14:00.192Z,26.1
2022-08-03T08:16:30.783Z,26.3
2022-08-03T08:19:01.387Z,26.9
2022-08-03T08:21:25.432Z,26.8
2022-08-03T08:24:08.279Z,27.3
2022-08-03T08:26:44.839Z,27.5
2022-08-03T08:31:45.582Z,27.6
2022-08-03T08:34:16.197Z,27.8
2022-08-03T08:36:46.805Z,27.9
2022-08-03T08:39:18.745Z,28.1
2022-08-03T08:41:59.839Z,27.6
2022-08-03T08:44:30.445Z,27.8
2022-08-03T08:47:01.084Z,28.1
2022-08-03T08:49:31.789Z,28.2
2022-08-03T08:52:01.304Z,27.6
2022-08-03T08:54:25.974Z,27.5
2022-08-03T08:57:16.347Z,27.3
2022-08-03T08:59:47.627Z,27.8
2022-08-03T09:02:08.599Z,28.2
2022-08-03T09:04:39.565Z,27.6
2022-08-03T09:07:20.243Z,27.6
2022-08-03T09:12:40.788Z,27.4
2022-08-03T09:15:07.768Z,27.6
2022-08-03T09:17:25.330Z,28.0
2022-08-03T09:20:03.369Z,28.6
2022-08-03T09:22:24.217Z,28.8
2022-08-03T09:25:23.671Z,28.8
2022-08-03T09:27:34.954Z,29.1
2022-08-03T09:30:05.575Z,28.6
2022-08-03T09:32:43.894Z,28.6
2022-08-03T09:35:14.750Z,28.8
2022-08-03T09:38:11.154Z,28.8
2022-08-03T09:40:24.339Z,29.0
2022-08-03T09:42:54.897Z,29.0
2022-08-03T09:45:25.496Z,28.9
2022-08-03T09:47:56.116Z,28.2
2022-08-03T09:52:56.905Z,28.6
2022-08-03T09:56:32.614Z,28.8
2022-08-03T09:58:06.092Z,28.6
2022-08-03T10:00:36.744Z,29.0
2022-08-03T10:03:07.540Z,29.3
2022-08-03T10:05:38.216Z,29.4
2022-08-03T10:08:20.301Z,29.3
2022-08-03T10:10:50.908Z,29.6
2022-08-03T10:13:21.512Z,29.6
2022-08-03T10:16:20.902Z,29.8
2022-08-03T10:18:25.141Z,29.8
2022-08-03T10:20:57.011Z,30.0
2022-08-03T10:23:37.652Z,30.2
2022-08-03T10:26:08.264Z,29.9
2022-08-03T10:28:42.932Z,29.8
2022-08-03T10:33:50.468Z,29.9
2022-08-03T10:36:13.107Z,29.7
2022-08-03T10:38:53.888Z,29.5
2022-08-03T10:41:26.434Z,29.7
2022-08-03T10:43:48.445Z,29.8
2022-08-03T10:46:19.056Z,30.0
2022-08-03T10:48:54.839Z,30.1
2022-08-03T10:51:25.652Z,30.2
2022-08-03T10:54:06.269Z,30.3
2022-08-03T10:56:35.560Z,30.4
2022-08-03T10:59:04.938Z,30.2
2022-08-03T11:01:58.415Z,29.7
2022-08-03T11:04:12.918Z,30.3
2022-08-03T11:06:47.215Z,30.4
2022-08-03T11:09:17.840Z,30.6
2022-08-03T11:14:18.625Z,29.6
2022-08-03T11:16:50.279Z,29.8
2022-08-03T11:19:27.635Z,30.0
2022-08-03T11:22:07.737Z,30.2
2022-08-03T11:24:38.350Z,30.2
2022-08-03T11:27:08.948Z,30.0
2022-08-03T11:29:39.801Z,29.8
2022-08-03T11:32:10.398Z,30.2
2022-08-03T11:34:41.014Z,30.4
2022-08-03T11:37:22.056Z,30.7
2022-08-03T11:39:45.099Z,31.0
2022-08-03T11:42:15.679Z,31.1
2022-08-03T11:44:46.882Z,31.3
2022-08-03T11:47:18.432Z,31.3
2022-08-03T11:49:51.101Z,31.0
2022-08-03T11:55:01.879Z,32.1
2022-08-03T11:59:00.381Z,31.8
2022-08-03T12:00:09.062Z,31.3
2022-08-03T12:02:39.666Z,31.2
2022-08-03T12:05:20.484Z,31.1
2022-08-03T12:08:02.937Z,31.2
2022-08-03T12:10:15.531Z,31.4
2022-08-03T12:12:46.645Z,31.6
2022-08-03T12:15:20.210Z,31.8
2022-08-03T12:17:52.762Z,31.9
2022-08-03T12:20:34.718Z,32.0
2022-08-03T12:23:05.800Z,32.2
2022-08-03T12:25:38.978Z,31.8
2022-08-03T12:28:02.933Z,31.3
2022-08-03T12:30:30.078Z,31.7
2022-08-03T12:35:40.850Z,32.1
2022-08-03T12:38:13.135Z,32.3
2022-08-03T12:40:46.704Z,32.4
2022-08-03T12:43:17.719Z,31.6
2022-08-03T12:45:49.945Z,31.8
2022-08-03T12:48:20.913Z,32.1
2022-08-03T12:51:04.123Z,32.2
2022-08-03T12:53:35.482Z,31.2
2022-08-03T12:56:06.367Z,31.2
2022-08-03T12:58:37.081Z,31.4
2022-08-03T13:01:09.373Z,32.0
2022-08-03T13:03:45.948Z,32.3
2022-08-03T13:06:16.877Z,32.8
2022-08-03T13:08:47.472Z,33.0
2022-08-03T13:11:19.100Z,33.1
2022-08-03T13:16:19.270Z,32.9
2022-08-03T13:19:00.050Z,33.1
2022-08-03T13:21:26.059Z,32.8
2022-08-03T13:24:02.070Z,32.3
2022-08-03T13:26:32.682Z,32.3
2022-08-03T13:29:03.273Z,32.6
2022-08-03T13:31:33.874Z,32.6
2022-08-03T13:34:11.414Z,33.1
2022-08-03T13:37:07.777Z,33.2
2022-08-03T13:39:18.888Z,33.1
2022-08-03T13:41:48.285Z,33.4
2022-08-03T13:44:29.062Z,33.3
2022-08-03T13:47:00.018Z,33.2
2022-08-03T13:49:31.387Z,33.6
2022-08-03T13:52:01.730Z,33.6
2022-08-03T13:58:05.518Z,33.4
2022-08-03T13:59:27.061Z,33.8
2022-08-03T14:02:07.706Z,33.5
2022-08-03T14:04:38.507Z,33.2
2022-08-03T14:07:09.109Z,33.6
2022-08-03T14:09:40.141Z,33.9
2022-08-03T14:12:10.756Z,33.8
2022-08-03T14:14:41.373Z,33.4
2022-08-03T14:17:23.143Z,33.4
2022-08-03T14:19:54.082Z,33.3
2022-08-03T14:22:28.039Z,33.9
2022-08-03T14:24:58.654Z,34.1
2022-08-03T14:27:30.321Z,33.6
2022-08-03T14:30:00.909Z,33.4
2022-08-03T14:32:41.532Z,33.4
2022-08-03T14:37:42.293Z,34.0
2022-08-03T14:40:13.012Z,34.2
2022-08-03T14:42:43.624Z,33.8
2022-08-03T14:45:24.213Z,32.7
2022-08-03T14:50:10.760Z,33.3
2022-08-03T14:51:07.248Z,33.7
2022-08-03T14:52:52.024Z,33.8
2022-08-03T14:55:25.576Z,33.5
2022-08-03T14:57:54.442Z,33.2
2022-08-03T15:00:39.802Z,33.3
2022-08-03T15:03:10.532Z,33.1
2022-08-03T15:05:37.199Z,33.4
2022-08-03T15:08:09.348Z,33.8
2022-08-03T15:10:40.751Z,34.1
2022-08-03T15:13:15.492Z,34.4
2022-08-03T15:18:26.247Z,34.0
2022-08-03T15:20:56.857Z,33.2
2022-08-03T15:23:26.540Z,33.1
2022-08-03T15:26:01.921Z,33.6
2022-08-03T15:28:23.366Z,33.7
2022-08-03T15:31:03.981Z,33.8
2022-08-03T15:33:39.501Z,33.8
2022-08-03T15:36:10.120Z,34.0
2022-08-03T15:38:40.737Z,34.2
2022-08-03T15:41:11.524Z,34.5
2022-08-03T15:43:54.353Z,34.8
2022-08-03T15:46:29.039Z,34.6
2022-08-03T15:48:50.084Z,33.9
2022-08-03T15:51:20.671Z,33.6
2022-08-03T15:53:51.272Z,33.2
2022-08-03T15:59:04.924Z,32.9
2022-08-03T16:01:33.084Z,33.5
2022-08-03T16:04:04.407Z,33.9
2022-08-03T16:06:36.410Z,33.4
2022-08-03T16:09:23.357Z,33.6
2022-08-03T16:11:42.204Z,33.8
2022-08-03T16:14:31.346Z,33.8
2022-08-03T16:16:53.277Z,33.4
2022-08-03T16:19:23.870Z,33.0
2022-08-03T16:21:56.716Z,33.0
2022-08-03T16:24:27.995Z,33.0
2022-08-03T16:27:00.940Z,33.1
2022-08-03T16:29:37.462Z,33.6
2022-08-03T16:32:09.471Z,33.5
2022-08-03T16:34:40.119Z,33.8
2022-08-03T16:39:41.007Z,34.3
2022-08-03T16:42:21.676Z,33.8
2022-08-03T16:44:52.254Z,33.4
2022-08-03T16:47:23.103Z,33.6
2022-08-03T16:49:56.378Z,33.9
2022-08-03T16:52:25.914Z,34.2
2022-08-03T16:54:50.832Z,33.4
2022-08-03T16:57:56.892Z,33.4
2022-08-03T17:00:01.579Z,33.9
2022-08-03T17:02:36.750Z,33.9
2022-08-03T17:05:08.887Z,34.0
2022-08-03T17:07:37.170Z,33.6
2022-08-03T17:10:03.025Z,33.8
2022-08-03T17:12:43.785Z,33.6
2022-08-03T17:15:15.817Z,33.2
2022-08-03T17:20:18.922Z,33.7
2022-08-03T17:22:52.943Z,33.1
2022-08-03T17:25:40.013Z,33.4
2022-08-03T17:28:42.753Z,33.0
2022-08-03T17:30:35.214Z,32.5
2022-08-03T17:33:00.006Z,32.3
2022-08-03T17:35:37.002Z,31.8
2022-08-03T17:38:14.532Z,31.9
2022-08-03T17:40:43.115Z,32.0
2022-08-03T17:44:14.693Z,31.5
2022-08-03T17:45:52.673Z,31.4
2022-08-03T17:48:24.826Z,31.2
2022-08-03T17:50:51.791Z,31.0
2022-08-03T17:53:24.134Z,30.9
2022-08-03T17:56:06.573Z,30.8
2022-08-03T18:01:05.313Z,30.6
2022-08-03T18:03:44.918Z,30.7
2022-08-03T18:06:09.123Z,30.6
2022-08-03T21:13:15.837Z,30.3
2022-08-03T21:13:46.884Z,30.1
2022-08-03T21:14:17.549Z,30.0
2022-08-03T21:14:50.504Z,29.8
2022-08-03T21:16:21.779Z,29.7
2022-08-03T21:16:52.434Z,29.5
2022-08-03T21:17:49.862Z,29.3
2022-08-03T21:18:20.544Z,29.1
2022-08-03T21:18:52.909Z,29.0
2022-08-03T21:19:23.577Z,28.9
2022-08-03T21:20:02.728Z,28.7
2022-08-03T21:20:33.393Z,28.5
2022-08-03T21:21:04.054Z,28.2
2022-08-03T21:21:34.731Z,28.0
2022-08-03T21:22:05.412Z,27.8
2022-08-03T21:22:36.091Z,27.6
2022-08-03T21:23:06.757Z,27.4
2022-08-03T21:24:05.933Z,27.2
2022-08-03T21:24:36.592Z,26.9
2022-08-03T21:25:10.857Z,26.6
2022-08-03T21:25:41.515Z,26.4
2022-08-03T21:26:12.168Z,26.2
2022-08-03T21:26:42.794Z,26.0
2022-08-03T21:27:13.434Z,25.7
2022-08-03T21:27:44.109Z,25.6
2022-08-03T21:28:14.773Z,25.3
2022-08-03T21:28:58.058Z,25.1
2022-08-03T21:29:28.718Z,24.8
2022-08-03T21:30:13.776Z,24.7
2022-08-03T21:30:44.435Z,24.6
2022-08-03T21:31:23.746Z,24.4
2022-08-03T21:31:56.324Z,24.2
2022-08-03T21:32:42.985Z,24.1
2022-08-03T21:33:14.006Z,24.0
2022-08-03T21:33:44.658Z,23.8
2022-08-03T21:34:17.811Z,23.8
2022-08-03T21:34:48.459Z,23.7
2022-08-03T21:35:19.112Z,23.7
2022-08-03T21:35:49.779Z,23.8
2022-08-03T21:36:21.249Z,23.8
2022-08-03T21:36:51.915Z,23.8
2022-08-03T21:37:24.763Z,23.7
2022-08-03T21:37:55.439Z,23.8
2022-08-03T21:38:29.608Z,23.8
2022-08-03T21:39:07.094Z,23.8
2022-08-03T21:39:38.123Z,23.9
2022-08-03T21:40:21.383Z,23.9
2022-08-03T21:40:52.047Z,24.0
2022-08-03T21:41:22.738Z,24.0
2022-08-03T21:41:53.417Z,24.0
2022-08-03T21:42:25.006Z,24.2
2022-08-03T21:42:55.738Z,24.2
2022-08-03T21:43:26.396Z,24.1
2022-08-03T21:43:57.065Z,24.0
2022-08-03T21:44:35.365Z,23.8
2022-08-03T21:45:06.022Z,23.6
2022-08-03T21:45:39.514Z,23.5
2022-08-03T21:46:11.158Z,23.4
2022-08-03T21:46:41.841Z,23.5
2022-08-03T21:47:12.508Z,23.6
2022-08-03T21:47:43.574Z,23.6
2022-08-03T21:48:14.224Z,23.6
2022-08-03T21:48:44.882Z,23.7
2022-08-03T21:50:17.838Z,23.8
2022-08-03T21:50:48.510Z,23.8
2022-08-03T21:51:19.203Z,23.8
2022-08-03T21:51:49.908Z,23.9
2022-08-03T21:52:20.594Z,23.9
2022-08-03T21:52:51.244Z,24.0
2022-08-03T21:53:21.904Z,23.9
2022-08-03T21:54:23.832Z,24.0
2022-08-03T21:54:54.494Z,23.8
2022-08-03T21:55:31.311Z,23.8
2022-08-03T21:56:01.952Z,23.8
2022-08-03T21:56:32.621Z,23.8
2022-08-03T21:57:03.276Z,23.7
2022-08-03T21:57:34.389Z,23.6
2022-08-03T21:58:08.325Z,23.6
2022-08-03T21:58:39.956Z,23.5
2022-08-03T21:59:12.201Z,23.4
2022-08-03T21:59:42.884Z,23.3
2022-08-03T22:00:13.556Z,23.2
2022-08-03T22:00:44.234Z,23.0
2022-08-03T22:01:14.916Z,22.9
2022-08-03T22:05:06.349Z,22.9
2022-08-03T22:07:42.968Z,23.0
2022-08-03T22:10:13.779Z,23.0
2022-08-03T22:12:44.584Z,23.1
2022-08-03T22:15:15.290Z,23.1
2022-08-03T22:17:54.235Z,23.2
2022-08-03T22:20:17.443Z,23.2
2022-08-03T22:22:50.212Z,23.2
2022-08-03T22:25:21.471Z,23.3
2022-08-03T22:27:52.088Z,23.2
2022-08-03T22:30:22.798Z,23.2
2022-08-03T22:32:53.443Z,23.2
2022-08-03T22:35:44.506Z,23.2
2022-08-03T22:38:08.235Z,23.2
2022-08-03T22:40:38.906Z,23.1
2022-08-03T22:45:45.329Z,23.0
2022-08-03T22:48:20.579Z,22.9
2022-08-03T22:50:52.818Z,22.8
2022-08-03T22:53:23.405Z,22.8
2022-08-03T22:55:53.994Z,22.7
2022-08-03T22:58:24.627Z,22.6
2022-08-03T23:00:55.213Z,22.4
2022-08-03T23:03:59.610Z,22.4
2022-08-03T23:06:03.723Z,22.2
2022-08-03T23:08:34.443Z,22.0
2022-08-03T23:11:05.040Z,21.8
2022-08-03T23:13:35.675Z,21.6
2022-08-03T23:16:06.270Z,21.2
2022-08-03T23:18:49.659Z,21.0
2022-08-03T23:21:51.362Z,20.7
2022-08-03T23:26:23.366Z,20.4
2022-08-03T23:28:53.964Z,20.4
2022-08-03T23:31:25.808Z,20.5
2022-08-03T23:34:06.394Z,20.4
2022-08-03T23:36:37.160Z,20.3
2022-08-03T23:39:07.787Z,20.1
2022-08-03T23:41:35.162Z,20.0
2022-08-03T23:44:05.755Z,19.8
2022-08-03T23:46:46.568Z,19.6
2022-08-03T23:49:17.219Z,19.6
2022-08-03T23:51:47.824Z,19.3
2022-08-03T23:54:18.426Z,19.2
2022-08-03T23:56:49.026Z,19.1
2022-08-03T23:59:21.782Z,19.0
